Time;durP1;ratioP1;P1;durP2;ratioP2;P2;SDS_P1;SDS_P2;PMS_P1;PMS_P2;Temp;Humidity;BMP_temperature;BMP_pressure;BME280_temperature;BME280_humidity;BME280_pressure;Samples;Min_cycle;Max_cycle;Signal;HPM_P1;HPM_P2
2023/07/29 00:00:53;;;;;;;3.10;1.30;;;22.60;63.00;;;;;;5031552;28;20195;-59
2023/07/29 00:03:20;;;;;;;2.95;1.17;;;22.60;62.90;;;;;;5030931;28;20224;-60
2023/07/29 00:05:49;;;;;;;2.13;1.17;;;22.60;62.90;;;;;;5031689;28;20232;-59
2023/07/29 00:08:16;;;;;;;1.45;1.20;;;22.60;62.90;;;;;;5031146;28;20239;-59
2023/07/29 00:10:44;;;;;;;1.65;1.27;;;22.60;62.90;;;;;;5031388;28;20192;-60
2023/07/29 00:13:11;;;;;;;2.08;1.33;;;22.60;62.90;;;;;;5031263;28;20274;-59
2023/07/29 00:15:40;;;;;;;3.40;1.45;;;22.60;62.90;;;;;;5073434;28;20194;-58
2023/07/29 00:18:07;;;;;;;2.72;1.48;;;22.60;63.00;;;;;;5092912;28;20222;-60
2023/07/29 00:20:35;;;;;;;1.85;1.33;;;22.60;62.90;;;;;;5093937;28;20355;-61
2023/07/29 00:23:02;;;;;;;3.65;1.30;;;22.50;62.80;;;;;;5093893;28;20218;-58
2023/07/29 00:25:30;;;;;;;2.05;1.10;;;22.60;62.90;;;;;;5093819;28;20232;-61
2023/07/29 00:27:57;;;;;;;1.67;1.30;;;22.50;62.80;;;;;;5093476;28;20604;-59
2023/07/29 00:30:24;;;;;;;1.20;1.10;;;22.50;62.90;;;;;;5093509;28;20194;-60
2023/07/29 00:32:53;;;;;;;1.80;1.15;;;22.60;63.00;;;;;;5093120;28;20251;-62
2023/07/29 00:35:20;;;;;;;1.73;1.20;;;22.50;63.70;;;;;;5093868;28;20198;-57
2023/07/29 00:37:48;;;;;;;2.97;1.50;;;22.60;62.90;;;;;;5093720;28;20296;-58
2023/07/29 00:40:20;;;;;;;1.70;1.30;;;22.50;62.90;;;;;;5093523;28;20273;-59
2023/07/29 00:42:47;;;;;;;1.85;1.20;;;22.50;62.90;;;;;;5093561;28;20210;-59
2023/07/29 00:45:15;;;;;;;1.65;1.20;;;22.50;62.90;;;;;;5093164;28;20190;-56
2023/07/29 00:47:43;;;;;;;2.92;1.27;;;22.60;63.00;;;;;;5093033;28;20230;-57
2023/07/29 00:50:14;;;;;;;1.27;1.17;;;22.50;62.90;;;;;;5093445;28;20272;-55
2023/07/29 00:52:41;;;;;;;2.00;1.35;;;22.50;62.90;;;;;;5093005;28;20707;-58
2023/07/29 00:55:09;;;;;;;2.28;1.08;;;22.50;62.90;;;;;;5093265;28;20208;-59
2023/07/29 00:57:37;;;;;;;1.70;1.38;;;22.50;62.90;;;;;;5093121;28;20253;-58
2023/07/29 01:00:06;;;;;;;2.15;1.27;;;22.50;62.90;;;;;;5092907;28;20190;-59
2023/07/29 01:02:34;;;;;;;2.10;1.20;;;22.50;62.90;;;;;;5092633;28;20250;-57
2023/07/29 01:05:02;;;;;;;3.78;1.30;;;22.50;62.90;;;;;;5093161;28;20243;-58
2023/07/29 01:07:35;;;;;;;2.63;1.30;;;22.50;62.90;;;;;;5092647;28;20213;-58
2023/07/29 01:10:05;;;;;;;2.58;1.23;;;22.50;62.90;;;;;;5092722;28;20277;-58
2023/07/29 01:12:40;;;;;;;2.33;1.33;;;22.50;62.90;;;;;;5093044;28;20225;-56
2023/07/29 01:15:15;;;;;;;1.80;1.20;;;22.50;62.90;;;;;;5092665;28;20234;-57
2023/07/29 01:17:47;;;;;;;1.60;1.30;;;22.50;62.90;;;;;;5092129;28;20218;-58
2023/07/29 01:20:17;;;;;;;1.92;1.13;;;22.50;62.90;;;;;;5092890;28;20182;-57
2023/07/29 01:22:46;;;;;;;2.47;1.30;;;22.50;62.90;;;;;;5092588;28;20589;-58
2023/07/29 01:25:18;;;;;;;1.33;1.08;;;22.50;62.90;;;;;;5091880;28;20225;-55
2023/07/29 01:27:48;;;;;;;2.65;1.20;;;22.50;63.00;;;;;;5092651;28;20236;-57
2023/07/29 01:30:15;;;;;;;2.20;1.23;;;22.50;63.00;;;;;;5092716;28;20193;-58
2023/07/29 01:32:46;;;;;;;1.70;1.27;;;22.50;63.00;;;;;;5091691;28;20234;-56
2023/07/29 01:35:23;;;;;;;1.80;1.23;;;22.50;63.00;;;;;;5092657;28;20200;-58
2023/07/29 01:38:25;;;;;;;2.53;1.17;;;22.50;63.00;;;;;;5092003;28;20776;-55
2023/07/29 01:40:55;;;;;;;1.30;1.20;;;22.40;62.90;;;;;;5092558;28;20181;-55
2023/07/29 01:43:25;;;;;;;1.55;1.02;;;22.50;63.00;;;;;;5092328;28;20295;-55
2023/07/29 01:45:53;;;;;;;1.20;1.10;;;22.40;62.90;;;;;;5089931;28;20263;-58
2023/07/29 01:48:20;;;;;;;1.27;1.17;;;22.40;62.90;;;;;;5092256;28;20233;-57
2023/07/29 01:50:49;;;;;;;1.27;1.00;;;22.40;62.90;;;;;;5092452;28;20564;-57
2023/07/29 01:56:46;;;;;;;1.73;1.00;;;22.50;63.20;;;;;;5092238;28;20257;-56
2023/07/29 01:59:15;;;;;;;2.17;1.00;;;22.50;63.10;;;;;;5092624;28;20218;-58
2023/07/29 02:01:43;;;;;;;1.30;1.13;;;22.50;63.20;;;;;;5091409;28;20197;-59
2023/07/29 02:04:11;;;;;;;1.05;0.90;;;22.40;63.10;;;;;;5092527;28;20221;-60
2023/07/29 02:06:39;;;;;;;1.40;1.00;;;22.40;63.10;;;;;;5092427;28;20190;-59
2023/07/29 02:09:06;;;;;;;1.00;0.90;;;22.40;63.10;;;;;;5092056;28;20245;-55
2023/07/29 02:11:34;;;;;;;1.70;1.30;;;22.40;63.10;;;;;;5092248;28;20240;-59
2023/07/29 02:14:03;;;;;;;1.33;1.00;;;22.40;63.20;;;;;;5092424;28;20217;-57
2023/07/29 02:16:32;;;;;;;1.55;1.20;;;22.40;63.10;;;;;;5091720;28;20202;-56
2023/07/29 02:19:00;;;;;;;1.23;1.00;;;22.40;63.20;;;;;;5092094;28;20214;-58
2023/07/29 02:21:27;;;;;;;3.17;1.15;;;22.50;63.30;;;;;;5092182;28;20194;-57
2023/07/29 02:23:55;;;;;;;1.70;1.13;;;22.50;63.40;;;;;;5092281;28;20249;-59
2023/07/29 02:26:23;;;;;;;1.52;1.02;;;22.40;63.20;;;;;;5092108;28;20284;-59
2023/07/29 02:28:51;;;;;;;1.10;1.00;;;22.50;63.40;;;;;;5092156;28;20237;-59
2023/07/29 02:31:22;;;;;;;1.10;1.00;;;22.40;63.20;;;;;;5091291;28;20294;-56
2023/07/29 02:33:50;;;;;;;1.20;1.10;;;22.40;63.20;;;;;;5092233;28;20218;-55
2023/07/29 02:36:18;;;;;;;1.20;1.05;;;22.40;63.30;;;;;;5092619;28;20182;-58
2023/07/29 02:38:46;;;;;;;1.77;1.00;;;22.50;63.40;;;;;;5096066;28;20214;-57
2023/07/29 02:41:15;;;;;;;2.50;0.90;;;22.40;63.30;;;;;;5095817;28;20189;-57
2023/07/29 02:43:49;;;;;;;2.15;1.15;;;22.40;63.30;;;;;;5095881;28;20237;-56
2023/07/29 02:46:16;;;;;;;1.67;1.10;;;22.40;63.30;;;;;;5095201;28;20182;-56
2023/07/29 02:48:48;;;;;;;1.00;0.90;;;22.40;63.40;;;;;;5095742;28;20234;-58
2023/07/29 02:51:16;;;;;;;1.38;0.90;;;22.40;63.40;;;;;;5095319;28;20709;-57
2023/07/29 02:53:44;;;;;;;2.65;1.08;;;22.40;63.30;;;;;;5095411;28;20263;-56
2023/07/29 02:56:11;;;;;;;2.60;0.80;;;22.40;63.40;;;;;;5095527;28;20285;-58
2023/07/29 02:58:39;;;;;;;1.67;1.10;;;22.40;63.40;;;;;;5095289;28;20722;-54
2023/07/29 03:01:22;;;;;;;1.92;1.00;;;22.40;63.40;;;;;;5094622;28;20228;-58
2023/07/29 03:03:51;;;;;;;1.08;0.80;;;22.40;63.40;;;;;;5093626;28;20300;-58
2023/07/29 03:06:18;;;;;;;1.85;1.10;;;22.40;63.40;;;;;;5095391;28;20186;-58
2023/07/29 03:08:46;;;;;;;1.23;1.13;;;22.40;63.40;;;;;;5095403;28;20233;-58
2023/07/29 03:11:15;;;;;;;4.45;1.10;;;22.40;63.40;;;;;;5095244;28;20186;-58
2023/07/29 03:13:43;;;;;;;1.38;1.05;;;22.40;63.40;;;;;;5095337;28;20221;-55
2023/07/29 03:16:12;;;;;;;1.67;1.00;;;22.40;63.40;;;;;;5094382;28;20186;-57
2023/07/29 03:18:40;;;;;;;2.17;1.10;;;22.40;63.40;;;;;;5095201;28;20214;-56
2023/07/29 03:21:10;;;;;;;1.50;1.10;;;22.40;63.40;;;;;;5095088;28;20251;-57
2023/07/29 03:23:38;;;;;;;1.17;1.08;;;22.40;63.40;;;;;;5095171;28;20214;-58
2023/07/29 03:26:10;;;;;;;2.63;1.25;;;22.40;63.50;;;;;;5095014;28;20186;-56
2023/07/29 03:28:39;;;;;;;1.23;1.10;;;22.40;63.50;;;;;;5094938;28;20606;-58
2023/07/29 03:31:06;;;;;;;1.58;1.17;;;22.40;63.50;;;;;;5093771;28;20225;-58
2023/07/29 03:33:41;;;;;;;1.70;1.10;;;22.30;63.30;;;;;;5095054;28;20252;-56
2023/07/29 03:36:11;;;;;;;1.48;0.90;;;22.40;63.40;;;;;;5094832;28;20196;-57
2023/07/29 03:38:39;;;;;;;1.98;1.10;;;22.40;63.50;;;;;;5094473;28;20358;-54
2023/07/29 03:41:08;;;;;;;1.58;0.98;;;22.40;63.40;;;;;;5094530;28;20198;-58
2023/07/29 03:43:36;;;;;;;1.50;1.08;;;22.40;63.50;;;;;;5094445;28;20221;-59
2023/07/29 03:46:03;;;;;;;1.15;1.00;;;22.40;63.50;;;;;;5093746;28;20186;-58
2023/07/29 03:48:31;;;;;;;1.73;1.10;;;22.40;64.30;;;;;;5093568;28;20282;-58
2023/07/29 03:50:58;;;;;;;1.70;1.20;;;22.40;63.50;;;;;;5094184;28;20349;-58
2023/07/29 03:53:27;;;;;;;2.08;1.10;;;22.40;63.50;;;;;;5094418;28;20209;-58
2023/07/29 03:55:55;;;;;;;2.35;1.02;;;22.40;63.50;;;;;;5094070;28;20186;-57
2023/07/29 03:58:22;;;;;;;1.20;1.10;;;22.40;63.90;;;;;;5094460;28;20218;-55
2023/07/29 04:00:52;;;;;;;1.30;1.05;;;22.30;63.40;;;;;;5093694;28;20271;-53
2023/07/29 04:03:19;;;;;;;2.35;1.17;;;22.40;63.50;;;;;;5094360;28;20229;-57
2023/07/29 04:05:47;;;;;;;1.83;1.25;;;22.30;63.40;;;;;;5093868;28;20562;-58
2023/07/29 04:12:13;;;;;;;1.90;1.20;;;22.40;63.50;;;;;;5093838;28;20199;-58
2023/07/29 04:14:43;;;;;;;2.85;1.40;;;22.30;63.40;;;;;;5093295;28;20803;-57
2023/07/29 04:17:10;;;;;;;1.55;1.10;;;22.40;63.50;;;;;;5094079;28;20211;-58
2023/07/29 04:19:38;;;;;;;1.67;1.13;;;22.30;63.50;;;;;;5094071;28;20210;-56
2023/07/29 04:22:06;;;;;;;3.17;1.20;;;22.30;63.40;;;;;;5093873;28;20189;-57
2023/07/29 04:24:33;;;;;;;1.85;1.00;;;22.30;63.40;;;;;;5094038;28;20300;-59
2023/07/29 04:27:01;;;;;;;3.35;1.38;;;22.40;63.60;;;;;;5093868;28;20186;-57
2023/07/29 04:29:28;;;;;;;2.15;1.10;;;22.30;63.40;;;;;;5093249;28;20298;-59
2023/07/29 04:31:57;;;;;;;1.35;1.00;;;22.30;63.40;;;;;;5093547;28;20237;-57
2023/07/29 04:34:25;;;;;;;1.75;1.00;;;22.30;63.40;;;;;;5093845;28;20221;-52
2023/07/29 04:36:52;;;;;;;2.65;1.27;;;22.30;63.40;;;;;;5093294;28;20196;-54
2023/07/29 04:39:21;;;;;;;1.65;1.05;;;22.30;63.40;;;;;;5093767;28;20210;-58
2023/07/29 04:41:49;;;;;;;1.08;0.95;;;22.30;63.40;;;;;;5093446;28;20190;-58
2023/07/29 04:44:16;;;;;;;1.48;1.10;;;22.30;63.50;;;;;;5092702;28;20217;-57
2023/07/29 04:46:44;;;;;;;1.77;1.10;;;22.30;63.50;;;;;;5093454;28;20186;-58
2023/07/29 04:49:13;;;;;;;1.30;1.08;;;22.30;63.50;;;;;;5093511;28;20238;-58
2023/07/29 04:51:41;;;;;;;1.50;0.98;;;22.30;63.50;;;;;;5093282;28;20186;-58
2023/07/29 04:54:08;;;;;;;1.70;1.08;;;22.30;64.30;;;;;;5093396;28;20217;-58
2023/07/29 04:56:36;;;;;;;4.38;0.90;;;22.30;63.50;;;;;;5093277;28;20193;-55
2023/07/29 04:59:04;;;;;;;2.47;1.20;;;22.30;63.40;;;;;;5092767;28;20217;-58
2023/07/29 05:01:32;;;;;;;1.90;1.10;;;22.30;63.50;;;;;;5092168;28;20194;-58
2023/07/29 05:03:59;;;;;;;1.23;0.98;;;22.30;63.50;;;;;;5093270;28;20230;-58
2023/07/29 05:06:28;;;;;;;2.08;0.90;;;22.30;63.50;;;;;;5093144;28;20190;-58
2023/07/29 05:08:58;;;;;;;1.63;1.10;;;22.30;63.50;;;;;;5093041;28;20233;-56
2023/07/29 05:11:26;;;;;;;1.92;1.05;;;22.30;63.50;;;;;;5092981;28;20193;-59
2023/07/29 05:13:53;;;;;;;1.73;1.00;;;22.30;63.50;;;;;;5092755;28;20263;-55
2023/07/29 05:16:21;;;;;;;1.35;0.88;;;22.30;63.50;;;;;;5092258;28;20221;-57
2023/07/29 05:18:48;;;;;;;1.45;0.90;;;22.30;63.50;;;;;;5093007;28;20221;-56
2023/07/29 05:21:16;;;;;;;2.42;1.10;;;22.30;63.50;;;;;;5092787;28;20190;-57
2023/07/29 05:23:46;;;;;;;1.90;1.00;;;22.30;63.50;;;;;;5092583;28;20683;-57
2023/07/29 05:26:13;;;;;;;1.23;0.93;;;22.30;63.50;;;;;;5092820;28;20186;-56
2023/07/29 05:28:41;;;;;;;1.60;1.00;;;22.30;63.60;;;;;;5092402;28;20221;-56
2023/07/29 05:31:08;;;;;;;0.90;0.90;;;22.30;63.50;;;;;;5091762;28;20226;-58
2023/07/29 05:33:37;;;;;;;1.48;0.90;;;22.30;63.50;;;;;;5092859;28;20218;-58
2023/07/29 05:36:05;;;;;;;2.42;1.10;;;22.30;63.60;;;;;;5092623;28;20228;-57
2023/07/29 05:38:33;;;;;;;1.42;1.00;;;22.30;63.50;;;;;;5092604;28;20259;-55
2023/07/29 05:41:02;;;;;;;2.20;1.20;;;22.30;63.50;;;;;;5092182;28;20197;-57
2023/07/29 05:43:29;;;;;;;2.42;1.10;;;22.20;63.40;;;;;;5092603;28;20213;-59
2023/07/29 05:45:57;;;;;;;1.33;1.00;;;22.30;63.50;;;;;;5091890;28;20190;-60
2023/07/29 05:48:24;;;;;;;1.52;1.20;;;22.30;63.50;;;;;;5092537;28;20225;-61
2023/07/29 05:50:52;;;;;;;1.10;1.00;;;22.30;63.50;;;;;;5092357;28;20222;-60
2023/07/29 05:53:19;;;;;;;2.42;1.00;;;22.30;63.50;;;;;;5092458;28;20229;-60
2023/07/29 05:55:47;;;;;;;1.45;1.20;;;22.30;63.50;;;;;;5092406;28;20190;-59
2023/07/29 05:58:16;;;;;;;1.92;1.02;;;22.30;63.50;;;;;;5092619;28;20214;-60
2023/07/29 06:00:43;;;;;;;2.38;0.95;;;22.30;63.50;;;;;;5091511;28;20664;-59
2023/07/29 06:03:11;;;;;;;1.20;1.00;;;22.20;63.40;;;;;;5092320;28;20301;-61
2023/07/29 06:05:38;;;;;;;1.65;1.00;;;22.30;63.60;;;;;;5091988;28;20194;-60
2023/07/29 06:08:08;;;;;;;0.98;0.90;;;22.20;63.40;;;;;;5091682;28;20297;-57
2023/07/29 06:10:36;;;;;;;2.60;1.00;;;22.20;63.40;;;;;;5091846;28;20695;-60
2023/07/29 06:13:03;;;;;;;1.83;1.17;;;22.20;63.40;;;;;;5095805;28;20186;-61
2023/07/29 06:15:32;;;;;;;3.10;1.70;;;22.30;63.50;;;;;;5095719;28;20190;-61
2023/07/29 06:18:00;;;;;;;3.03;1.30;;;22.30;63.50;;;;;;5096306;28;20243;-58
2023/07/29 06:20:27;;;;;;;1.75;1.30;;;22.20;63.40;;;;;;5096203;28;20193;-59
2023/07/29 06:22:56;;;;;;;2.42;1.20;;;22.30;63.50;;;;;;5095826;28;20182;-58
2023/07/29 06:28:07;;;;;;;1.98;1.10;;;22.20;63.40;;;;;;5061853;28;20197;-57
2023/07/29 06:30:36;;;;;;;2.70;1.30;;;22.20;63.40;;;;;;5095358;28;20225;-60
2023/07/29 06:33:03;;;;;;;2.75;1.27;;;22.20;63.40;;;;;;5096023;28;20182;-59
2023/07/29 06:35:31;;;;;;;2.03;1.33;;;22.30;63.50;;;;;;5096336;28;20198;-56
2023/07/29 06:37:58;;;;;;;1.55;1.02;;;22.20;63.40;;;;;;5095951;28;20221;-58
2023/07/29 06:40:26;;;;;;;2.97;1.42;;;22.20;63.40;;;;;;5095529;28;20779;-57
2023/07/29 06:42:54;;;;;;;1.83;1.27;;;22.20;63.40;;;;;;5095784;28;20217;-56
2023/07/29 06:45:21;;;;;;;2.78;1.10;;;22.20;63.40;;;;;;5095270;28;20187;-59
2023/07/29 06:47:50;;;;;;;2.90;1.30;;;22.20;63.40;;;;;;5095798;28;20243;-61
2023/07/29 06:50:18;;;;;;;7.47;1.50;;;22.30;63.50;;;;;;5095583;28;20217;-61
2023/07/29 06:52:46;;;;;;;3.05;1.45;;;22.20;63.40;;;;;;5095673;28;20277;-59
2023/07/29 06:55:13;;;;;;;2.10;1.30;;;22.20;63.40;;;;;;5095405;28;20217;-56
2023/07/29 06:57:40;;;;;;;2.25;1.38;;;22.20;63.40;;;;;;5095603;28;20186;-56
2023/07/29 07:00:09;;;;;;;3.42;1.33;;;22.20;63.40;;;;;;5095049;28;20210;-61
2023/07/29 07:02:37;;;;;;;2.70;1.55;;;22.20;63.40;;;;;;5095167;28;20281;-61
2023/07/29 07:05:06;;;;;;;2.03;1.50;;;22.20;63.40;;;;;;5095694;28;20209;-59
2023/07/29 07:07:33;;;;;;;3.50;1.30;;;22.20;63.40;;;;;;5095444;28;20281;-61
2023/07/29 07:12:42;;;;;;;3.00;1.67;;;22.20;63.40;;;;;;5092274;28;20252;-61
2023/07/29 07:15:10;;;;;;;2.92;1.50;;;22.20;63.40;;;;;;5094823;28;20214;-62
2023/07/29 07:17:38;;;;;;;3.42;1.27;;;22.20;63.40;;;;;;5095190;28;20186;-62
2023/07/29 07:20:08;;;;;;;3.55;1.65;;;22.20;63.40;;;;;;5095248;28;20214;-59
2023/07/29 07:22:36;;;;;;;2.78;1.52;;;22.20;63.40;;;;;;5094300;28;20190;-59
2023/07/29 07:25:03;;;;;;;2.17;1.15;;;22.20;63.30;;;;;;5094422;28;20640;-61
2023/07/29 07:27:31;;;;;;;2.55;1.60;;;22.20;63.30;;;;;;5095067;28;20243;-57
2023/07/29 07:29:59;;;;;;;3.88;1.50;;;22.20;63.40;;;;;;5094416;28;20248;-59
2023/07/29 07:32:26;;;;;;;3.55;1.40;;;22.20;63.30;;;;;;5094613;28;20265;-59
2023/07/29 07:34:54;;;;;;;2.95;1.50;;;22.20;63.30;;;;;;5095004;28;20218;-59
2023/07/29 07:37:25;;;;;;;3.35;1.50;;;22.20;64.10;;;;;;5094887;28;20259;-58
2023/07/29 07:39:52;;;;;;;2.45;1.60;;;22.20;63.30;;;;;;5094954;28;20221;-59
2023/07/29 07:42:20;;;;;;;3.47;1.63;;;22.20;63.30;;;;;;5094487;28;20190;-58
2023/07/29 07:44:47;;;;;;;2.90;1.52;;;22.20;63.30;;;;;;5093981;28;20226;-58
2023/07/29 07:47:15;;;;;;;2.42;1.48;;;22.20;63.30;;;;;;5094660;28;20186;-58
2023/07/29 07:49:42;;;;;;;2.85;1.50;;;22.20;64.20;;;;;;5094255;28;20234;-56
2023/07/29 07:52:10;;;;;;;5.93;1.67;;;22.20;63.20;;;;;;5094570;28;20197;-59
2023/07/29 07:54:39;;;;;;;4.70;1.88;;;22.20;63.30;;;;;;5094546;28;20214;-58
2023/07/29 07:57:07;;;;;;;3.35;1.48;;;22.20;63.20;;;;;;5094099;28;20182;-60
2023/07/29 07:59:37;;;;;;;2.38;1.30;;;22.20;63.20;;;;;;5093861;28;20218;-57
2023/07/29 08:02:05;;;;;;;1.83;1.52;;;22.20;63.20;;;;;;5094312;28;20187;-57
2023/07/29 08:04:33;;;;;;;2.50;1.40;;;22.20;63.20;;;;;;5094129;28;20222;-57
2023/07/29 08:07:01;;;;;;;2.35;1.45;;;22.30;63.20;;;;;;5094258;28;20239;-60
2023/07/29 08:09:28;;;;;;;5.28;1.80;;;22.20;63.10;;;;;;5094266;28;20210;-60
2023/07/29 08:11:57;;;;;;;4.57;1.42;;;22.20;63.10;;;;;;5094134;28;20186;-58
2023/07/29 08:14:26;;;;;;;2.60;1.60;;;22.20;63.00;;;;;;5093271;28;20300;-61
2023/07/29 08:16:53;;;;;;;3.15;1.60;;;22.20;63.00;;;;;;5094075;28;20190;-60
2023/07/29 08:19:21;;;;;;;4.70;1.80;;;22.20;62.90;;;;;;5093797;28;20711;-61
2023/07/29 08:21:48;;;;;;;4.20;1.52;;;22.20;62.80;;;;;;5093937;28;20186;-60
2023/07/29 08:24:16;;;;;;;3.90;1.90;;;22.20;62.80;;;;;;5093916;28;20218;-59
2023/07/29 08:26:43;;;;;;;4.90;1.60;;;22.20;63.50;;;;;;5093890;28;20206;-60
2023/07/29 08:29:13;;;;;;;4.90;2.00;;;22.20;62.70;;;;;;5093309;28;20225;-61
2023/07/29 08:31:40;;;;;;;4.35;1.60;;;22.20;62.70;;;;;;5093523;28;20237;-58
2023/07/29 08:34:08;;;;;;;4.07;1.90;;;22.20;62.70;;;;;;5093711;28;20225;-57
2023/07/29 08:36:35;;;;;;;3.80;1.80;;;22.20;62.70;;;;;;5093694;28;20268;-57
2023/07/29 08:39:03;;;;;;;3.95;1.90;;;22.20;62.60;;;;;;5093680;28;20210;-54
2023/07/29 08:45:28;;;;;;;4.35;1.67;;;22.20;62.60;;;;;;5050215;28;20369;-57
2023/07/29 08:47:59;;;;;;;4.50;1.80;;;22.20;62.60;;;;;;5050573;28;20188;-56
2023/07/29 08:50:28;;;;;;;4.97;1.50;;;22.20;62.60;;;;;;5050674;28;20262;-58
2023/07/29 08:52:57;;;;;;;4.32;1.85;;;22.20;62.60;;;;;;5050551;28;20192;-58
2023/07/29 08:55:24;;;;;;;4.15;1.80;;;22.20;62.60;;;;;;5050665;28;20219;-56
2023/07/29 08:57:53;;;;;;;6.47;2.08;;;22.20;62.60;;;;;;5049865;28;20192;-57
2023/07/29 09:00:23;;;;;;;3.95;1.60;;;22.20;62.60;;;;;;5050572;28;20222;-57
2023/07/29 09:02:51;;;;;;;3.90;1.60;;;22.20;62.60;;;;;;5050694;28;20191;-58
2023/07/29 09:05:21;;;;;;;3.95;1.55;;;22.20;62.50;;;;;;5050477;28;20233;-58
2023/07/29 09:07:51;;;;;;;5.13;2.00;;;22.20;62.50;;;;;;5050362;28;20195;-58
2023/07/29 09:10:23;;;;;;;5.35;1.67;;;22.20;62.60;;;;;;5050360;28;20245;-58
2023/07/29 09:12:51;;;;;;;3.78;2.03;;;22.20;62.60;;;;;;5049614;28;20197;-56
2023/07/29 09:15:29;;;;;;;8.18;2.40;;;22.20;62.50;;;;;;5050197;28;20227;-57
2023/07/29 09:17:58;;;;;;;4.18;2.10;;;22.20;62.50;;;;;;5050153;28;20215;-57
2023/07/29 09:20:28;;;;;;;4.70;1.98;;;22.20;62.50;;;;;;5051452;28;20304;-57
2023/07/29 09:22:56;;;;;;;2.85;1.80;;;22.20;62.40;;;;;;5092881;28;20235;-57
2023/07/29 09:25:25;;;;;;;4.45;2.20;;;22.20;62.40;;;;;;5093017;28;20249;-54
2023/07/29 09:27:53;;;;;;;3.28;1.90;;;22.20;62.30;;;;;;5091976;28;20229;-55
2023/07/29 09:30:20;;;;;;;4.28;1.90;;;22.20;62.30;;;;;;5092791;28;20291;-57
2023/07/29 09:32:48;;;;;;;3.85;1.92;;;22.20;62.30;;;;;;5092320;28;20238;-56
2023/07/29 09:35:15;;;;;;;4.75;1.70;;;22.20;62.20;;;;;;5092563;28;20218;-55
2023/07/29 09:37:45;;;;;;;4.18;1.98;;;22.20;62.20;;;;;;5092921;28;20198;-57
2023/07/29 09:40:16;;;;;;;4.53;1.90;;;22.20;62.10;;;;;;5092494;28;20214;-57
2023/07/29 09:42:50;;;;;;;7.63;2.08;;;22.20;62.10;;;;;;5092080;28;20225;-58
2023/07/29 09:45:22;;;;;;;9.32;2.85;;;22.20;62.10;;;;;;5092726;28;20334;-56
2023/07/29 09:47:50;;;;;;;4.50;2.10;;;22.20;62.10;;;;;;5092113;28;20194;-56
2023/07/29 09:50:17;;;;;;;5.65;2.03;;;22.20;61.90;;;;;;5092599;28;20248;-56
2023/07/29 09:55:28;;;;;;;5.28;2.15;;;22.20;61.90;;;;;;5084055;28;20224;-58
2023/07/29 09:58:00;;;;;;;5.68;2.38;;;22.20;61.80;;;;;;5091835;28;20247;-58
2023/07/29 10:00:28;;;;;;;7.72;2.60;;;22.20;61.80;;;;;;5092537;28;20214;-57
2023/07/29 10:02:58;;;;;;;6.03;2.08;;;22.20;61.80;;;;;;5092408;28;20190;-57
2023/07/29 10:05:27;;;;;;;4.90;2.30;;;22.20;61.80;;;;;;5092575;28;20210;-58
2023/07/29 10:07:57;;;;;;;5.78;2.10;;;22.20;61.70;;;;;;5092434;28;20190;-57
2023/07/29 10:10:24;;;;;;;5.97;2.17;;;22.20;61.70;;;;;;5092345;28;20237;-54
2023/07/29 10:12:56;;;;;;;6.47;2.10;;;22.20;61.70;;;;;;5091847;28;20283;-58
2023/07/29 10:15:24;;;;;;;5.05;2.25;;;22.20;61.70;;;;;;5092167;28;20224;-56
2023/07/29 10:17:53;;;;;;;3.65;1.95;;;22.20;61.70;;;;;;5091960;28;20213;-56
2023/07/29 10:20:20;;;;;;;4.45;2.00;;;22.20;61.60;;;;;;5092411;28;20218;-56
2023/07/29 10:22:50;;;;;;;5.95;2.00;;;22.20;61.60;;;;;;5091734;28;20227;-55
2023/07/29 10:25:22;;;;;;;4.90;2.22;;;22.20;61.60;;;;;;5092443;28;20214;-53
2023/07/29 10:27:54;;;;;;;6.65;2.30;;;22.20;61.50;;;;;;5091679;28;20190;-56
2023/07/29 10:30:21;;;;;;;4.75;2.17;;;22.20;61.50;;;;;;5092236;28;20210;-54
2023/07/29 10:32:51;;;;;;;6.75;2.20;;;22.20;61.50;;;;;;5091639;28;20233;-56
2023/07/29 10:35:18;;;;;;;6.22;2.20;;;22.20;61.40;;;;;;5092019;28;20217;-56
2023/07/29 10:37:50;;;;;;;3.55;1.92;;;22.20;61.40;;;;;;5092122;28;20186;-57
2023/07/29 10:40:19;;;;;;;4.65;1.90;;;22.20;61.40;;;;;;5092219;28;20300;-57
2023/07/29 10:43:02;;;;;;;5.28;2.08;;;22.20;61.40;;;;;;5091443;28;20243;-59
2023/07/29 10:45:38;;;;;;;6.47;2.20;;;22.20;61.40;;;;;;5092218;28;20249;-58
2023/07/29 10:48:08;;;;;;;4.97;1.83;;;22.20;61.40;;;;;;5091713;28;20193;-58
2023/07/29 10:50:36;;;;;;;5.25;2.65;;;22.20;61.40;;;;;;5091997;28;20229;-60
2023/07/29 10:53:03;;;;;;;6.55;2.42;;;22.20;61.40;;;;;;5091718;28;20190;-58
2023/07/29 10:55:37;;;;;;;5.15;2.20;;;22.10;61.20;;;;;;5092129;28;20218;-58
2023/07/29 10:58:18;;;;;;;5.35;2.60;;;22.20;61.30;;;;;;5093013;28;20194;-59
2023/07/29 11:00:46;;;;;;;6.15;2.28;;;22.20;61.20;;;;;;5095705;28;20217;-58
2023/07/29 11:06:14;;;;;;;7.40;2.42;;;22.20;61.30;;;;;;5052806;28;20708;-60
2023/07/29 11:08:42;;;;;;;5.68;2.08;;;22.20;61.20;;;;;;5091795;28;20202;-59
2023/07/29 11:11:13;;;;;;;5.72;2.30;;;22.20;61.30;;;;;;5095271;28;20221;-58
2023/07/29 11:13:41;;;;;;;5.07;2.40;;;22.20;61.30;;;;;;5094750;28;20182;-60
2023/07/29 11:16:17;;;;;;;4.35;2.08;;;22.20;61.30;;;;;;5094934;28;20196;-57
2023/07/29 11:18:47;;;;;;;7.18;2.45;;;22.20;61.30;;;;;;5095215;28;20232;-59
2023/07/29 11:21:15;;;;;;;6.18;2.10;;;22.20;61.30;;;;;;5095205;28;20279;-60
2023/07/29 11:23:43;;;;;;;2.92;2.00;;;22.20;61.30;;;;;;5095136;28;20190;-59
2023/07/29 11:26:12;;;;;;;6.82;2.90;;;22.20;61.20;;;;;;5095061;28;20205;-58
2023/07/29 11:28:40;;;;;;;6.68;2.75;;;22.20;61.20;;;;;;5094070;28;20187;-59
2023/07/29 11:31:08;;;;;;;4.68;2.25;;;22.10;61.00;;;;;;5094568;28;20237;-59
2023/07/29 11:33:36;;;;;;;6.78;2.22;;;22.20;61.10;;;;;;5094858;28;20739;-59
2023/07/29 11:36:03;;;;;;;6.35;2.30;;;22.20;61.10;;;;;;5094925;28;20190;-56
2023/07/29 11:38:36;;;;;;;4.90;2.58;;;22.20;61.10;;;;;;5094746;28;20187;-58
2023/07/29 11:41:04;;;;;;;5.75;2.35;;;22.20;61.10;;;;;;5094497;28;20194;-57
2023/07/29 11:43:36;;;;;;;5.22;2.45;;;22.20;61.10;;;;;;5094238;28;20195;-58
2023/07/29 11:46:05;;;;;;;4.93;2.10;;;22.20;61.10;;;;;;5094747;28;20272;-58
2023/07/29 11:48:34;;;;;;;5.97;2.47;;;22.20;61.90;;;;;;5094516;28;20225;-56
2023/07/29 11:51:02;;;;;;;6.38;2.67;;;22.20;61.10;;;;;;5094440;28;20303;-56
2023/07/29 11:53:30;;;;;;;6.47;2.20;;;22.20;61.10;;;;;;5094517;28;20190;-58
2023/07/29 11:56:16;;;;;;;4.35;2.33;;;22.20;61.00;;;;;;5094470;28;20182;-58
2023/07/29 11:58:45;;;;;;;4.07;1.98;;;22.20;61.00;;;;;;5094156;28;20201;-57
2023/07/29 12:01:14;;;;;;;6.28;2.63;;;22.20;61.00;;;;;;5094430;28;20197;-59
2023/07/29 12:03:42;;;;;;;5.10;2.30;;;22.20;61.00;;;;;;5094321;28;20189;-56
2023/07/29 12:06:10;;;;;;;7.82;2.13;;;22.20;61.00;;;;;;5094034;28;20190;-57
2023/07/29 12:08:38;;;;;;;7.43;2.85;;;22.20;61.00;;;;;;5094084;28;20192;-58
2023/07/29 12:11:06;;;;;;;6.28;2.53;;;22.20;61.00;;;;;;5093430;28;20608;-58
2023/07/29 12:13:35;;;;;;;5.38;2.80;;;22.20;61.00;;;;;;5093733;28;20183;-55
2023/07/29 12:16:04;;;;;;;5.57;2.47;;;22.20;61.00;;;;;;5093881;28;20225;-56
2023/07/29 12:18:33;;;;;;;7.32;3.17;;;22.20;61.00;;;;;;5094074;28;20208;-58
2023/07/29 12:21:01;;;;;;;6.32;2.10;;;22.20;60.90;;;;;;5094031;28;20190;-57
2023/07/29 12:23:29;;;;;;;5.78;2.63;;;22.20;60.90;;;;;;5094059;28;20198;-55
2023/07/29 12:25:59;;;;;;;7.22;2.83;;;22.20;61.00;;;;;;5094192;28;20218;-58
2023/07/29 12:28:27;;;;;;;6.53;2.65;;;22.20;60.90;;;;;;5093571;28;20186;-58
2023/07/29 12:30:55;;;;;;;6.03;2.33;;;22.20;60.90;;;;;;5093534;28;20234;-56
2023/07/29 12:33:34;;;;;;;6.20;2.50;;;22.20;60.90;;;;;;5093830;28;20182;-56
2023/07/29 12:36:04;;;;;;;5.10;2.60;;;22.20;60.90;;;;;;5093938;28;20181;-59
2023/07/29 12:38:32;;;;;;;6.50;2.45;;;22.20;60.90;;;;;;5093713;28;20182;-58
2023/07/29 12:40:59;;;;;;;7.35;2.38;;;22.20;61.00;;;;;;5093479;28;20216;-56
2023/07/29 12:43:27;;;;;;;4.88;2.53;;;22.20;60.90;;;;;;5093602;28;20190;-56
2023/07/29 12:45:55;;;;;;;6.85;2.85;;;22.20;60.90;;;;;;5093794;28;20224;-57
2023/07/29 12:48:23;;;;;;;4.93;2.33;;;22.20;60.90;;;;;;5093242;28;20202;-54
2023/07/29 12:50:52;;;;;;;5.65;2.58;;;22.20;60.90;;;;;;5093690;28;20214;-57
2023/07/29 12:53:19;;;;;;;7.45;2.25;;;22.20;60.90;;;;;;5093006;28;20304;-57
2023/07/29 12:55:47;;;;;;;4.47;2.33;;;22.20;60.90;;;;;;5093561;28;20236;-59
2023/07/29 12:58:15;;;;;;;4.30;2.03;;;22.20;60.90;;;;;;5092913;28;20190;-57
2023/07/29 13:00:42;;;;;;;8.32;2.20;;;22.20;60.90;;;;;;5093467;28;20213;-58
2023/07/29 13:03:10;;;;;;;5.28;2.38;;;22.20;60.90;;;;;;5093267;28;20189;-57
2023/07/29 13:05:37;;;;;;;6.70;2.33;;;22.20;60.90;;;;;;5093398;28;20229;-58
2023/07/29 13:08:06;;;;;;;6.28;2.45;;;22.20;60.80;;;;;;5093185;28;20182;-57
2023/07/29 13:10:33;;;;;;;3.00;2.17;;;22.20;60.80;;;;;;5093246;28;20220;-57
2023/07/29 13:13:07;;;;;;;5.70;2.20;;;22.30;60.90;;;;;;5092337;28;20299;-57
2023/07/29 13:15:34;;;;;;;5.50;2.13;;;22.20;60.80;;;;;;5093224;28;20303;-57
2023/07/29 13:18:02;;;;;;;5.43;2.30;;;22.20;60.90;;;;;;5092712;28;20190;-58